Time;durP1;ratioP1;P1;durP2;ratioP2;P2;SDS_P1;SDS_P2;PMS_P1;PMS_P2;Temp;Humidity;BMP_temperature;BMP_pressure;BME280_temperature;BME280_humidity;BME280_pressure;Samples;Min_cycle;Max_cycle;Signal;HPM_P1;HPM_P2
2023/09/18 00:00:44;;;;;;;0.57;0.57;;;;;;;17.66;100.00;100022.16;4948088;28;20569;-91
2023/09/18 00:03:09;;;;;;;0.80;0.80;;;;;;;17.61;100.00;100019.25;4950371;28;20050;-92
2023/09/18 00:05:35;;;;;;;1.20;1.10;;;;;;;17.57;100.00;100013.84;4967219;28;20396;-92
2023/09/18 00:08:02;;;;;;;1.95;1.60;;;;;;;17.66;100.00;100032.59;4933308;28;20079;-92
2023/09/18 00:10:28;;;;;;;1.45;1.30;;;;;;;17.57;100.00;100019.44;4953405;28;20044;-93
2023/09/18 00:12:54;;;;;;;0.70;0.68;;;;;;;17.63;100.00;100028.72;4950069;29;20070;-92
2023/09/18 00:15:20;;;;;;;1.65;1.55;;;;;;;17.61;100.00;100014.41;4959992;28;20407;-92
2023/09/18 00:17:46;;;;;;;1.20;0.52;;;;;;;17.69;100.00;100015.56;4949936;28;20047;-92
2023/09/18 00:20:11;;;;;;;0.60;0.52;;;;;;;17.67;100.00;100018.06;4959487;28;20205;-92
2023/09/18 00:22:37;;;;;;;2.10;1.90;;;;;;;17.71;100.00;100018.66;4953747;28;20114;-92
2023/09/18 00:25:03;;;;;;;2.90;1.23;;;;;;;17.72;100.00;100016.63;4941894;29;20129;-92
2023/09/18 00:27:29;;;;;;;0.80;0.70;;;;;;;17.67;100.00;100017.31;4939540;28;20151;-92
2023/09/18 00:29:55;;;;;;;0.93;0.85;;;;;;;17.69;100.00;100015.56;4929225;28;20053;-91
2023/09/18 00:32:20;;;;;;;1.60;1.48;;;;;;;17.74;100.00;100021.75;4941388;28;20051;-92
2023/09/18 00:34:46;;;;;;;1.67;1.33;;;;;;;17.75;100.00;100026.88;4930849;29;20040;-92
2023/09/18 00:37:12;;;;;;;1.45;0.98;;;;;;;17.65;100.00;100019.81;4950142;28;20134;-92
2023/09/18 00:39:38;;;;;;;1.75;1.60;;;;;;;17.64;100.00;100019.03;4935903;28;20098;-92
2023/09/18 00:42:04;;;;;;;0.80;0.75;;;;;;;17.60;100.00;100012.09;4951828;29;20058;-91
2023/09/18 00:44:29;;;;;;;1.38;1.27;;;;;;;17.54;100.00;100019.63;4952683;28;20043;-91
2023/09/18 00:46:55;;;;;;;2.35;1.55;;;;;;;17.44;100.00;100010.53;4926700;29;20040;-92
2023/09/18 00:49:22;;;;;;;2.45;1.95;;;;;;;17.54;100.00;100026.00;4950179;29;20046;-92
2023/09/18 00:51:49;;;;;;;1.25;1.13;;;;;;;17.57;100.00;100022.25;4933831;29;20052;-92
2023/09/18 00:54:18;;;;;;;1.63;1.52;;;;;;;17.46;100.00;99999.63;4948191;28;20045;-92
2023/09/18 00:56:44;;;;;;;2.40;1.33;;;;;;;17.55;100.00;100032.41;4947254;28;20043;-92
2023/09/18 00:59:10;;;;;;;1.23;1.13;;;;;;;17.46;100.00;100010.06;4932380;29;20047;-91
2023/09/18 01:01:36;;;;;;;0.77;0.75;;;;;;;17.55;100.00;100021.94;4948627;29;20039;-92
2023/09/18 01:04:02;;;;;;;1.90;1.73;;;;;;;17.56;100.00;100022.69;4947541;28;20488;-92
2023/09/18 01:06:30;;;;;;;0.80;0.80;;;;;;;17.56;100.00;100017.88;4950358;28;20086;-92
2023/09/18 01:08:56;;;;;;;1.17;0.63;;;;;;;17.54;100.00;100016.81;4960846;28;20078;-92
2023/09/18 01:11:34;;;;;;;1.40;1.30;;;;;;;17.51;100.00;100012.19;4937440;29;20043;-92
2023/09/18 01:14:18;;;;;;;2.10;1.52;;;;;;;17.54;100.00;100014.00;4954552;28;20043;-92
2023/09/18 01:16:54;;;;;;;;;;;;;;;17.56;100.00;100014.28;4967933;28;20495;-91
2023/09/18 01:19:39;;;;;;;1.52;1.42;;;;;;;17.46;100.00;100008.03;4950937;28;19970;-92
2023/09/18 01:22:09;;;;;;;1.95;1.25;;;;;;;17.49;100.00;100012.66;4950442;29;20056;-92
2023/09/18 01:24:36;;;;;;;2.05;1.15;;;;;;;17.45;100.00;100011.31;4961900;28;20039;-92
2023/09/18 01:27:05;;;;;;;1.92;0.95;;;;;;;17.38;100.00;100000.50;4948222;28;20047;-91
2023/09/18 01:29:31;;;;;;;3.03;2.45;;;;;;;17.40;100.00;100009.97;4949584;29;20047;-93
2023/09/18 01:31:57;;;;;;;2.15;1.95;;;;;;;17.35;100.00;100002.22;4951544;28;20047;-92
2023/09/18 01:34:27;;;;;;;2.03;1.45;;;;;;;17.37;100.00;100005.31;4950317;28;20047;-91
2023/09/18 01:36:52;;;;;;;0.47;0.47;;;;;;;17.34;100.00;100002.72;4937868;29;20114;-92
2023/09/18 01:39:19;;;;;;;3.47;1.92;;;;;;;17.25;100.00;99992.38;4952565;29;20130;-92
2023/09/18 01:41:45;;;;;;;2.60;2.13;;;;;;;17.16;100.00;99984.84;4955997;28;20129;-92
2023/09/18 01:44:11;;;;;;;2.42;1.60;;;;;;;17.09;100.00;99976.03;4936168;29;20031;-92
2023/09/18 01:46:37;;;;;;;0.30;0.30;;;;;;;16.97;100.00;99965.91;4953633;29;20062;-91
2023/09/18 01:49:05;;;;;;;2.35;1.63;;;;;;;17.09;100.00;99995.66;4938155;29;20392;-92
2023/09/18 01:51:31;;;;;;;1.45;1.35;;;;;;;17.12;100.00;99991.88;4953774;28;20506;-91
2023/09/18 01:53:56;;;;;;;1.17;0.98;;;;;;;17.14;100.00;99986.59;4920488;29;20134;-91
2023/09/18 01:56:23;;;;;;;1.15;1.05;;;;;;;17.12;100.00;99983.47;4949463;28;20416;-91
2023/09/18 01:58:49;;;;;;;1.25;1.15;;;;;;;17.12;100.00;99989.09;4935224;29;20048;-91
2023/09/18 02:01:14;;;;;;;3.78;1.50;;;;;;;17.10;100.00;99991.59;4949929;29;20043;-92
2023/09/18 02:03:41;;;;;;;1.00;0.95;;;;;;;17.04;100.00;99987.91;4952204;28;20559;-91
2023/09/18 02:06:08;;;;;;;1.25;1.17;;;;;;;17.07;100.00;99993.34;4953387;29;20058;-92
2023/09/18 02:08:34;;;;;;;2.47;1.58;;;;;;;17.03;100.00;99981.53;4943447;28;20051;-91
2023/09/18 02:11:00;;;;;;;2.17;1.67;;;;;;;17.08;100.00;99991.31;4952458;29;20452;-91
2023/09/18 02:13:26;;;;;;;1.45;1.25;;;;;;;17.12;100.00;99983.47;4952526;28;20058;-91
2023/09/18 02:15:51;;;;;;;1.25;1.13;;;;;;;17.04;100.00;99959.91;4953171;28;20039;-91
2023/09/18 02:18:17;;;;;;;1.13;1.02;;;;;;;16.99;100.00;99941.72;4954545;28;20513;-91
2023/09/18 02:20:47;;;;;;;2.72;1.48;;;;;;;17.01;100.00;99956.03;4952846;28;20416;-91
2023/09/18 02:23:12;;;;;;;1.30;1.08;;;;;;;17.08;100.00;99977.28;4953535;28;20067;-91
2023/09/18 02:25:40;;;;;;;0.95;0.90;;;;;;;17.05;100.00;99967.06;4953247;28;20523;-91
2023/09/18 02:28:06;;;;;;;0.88;0.88;;;;;;;17.05;100.00;99967.84;4952608;28;20031;-91
2023/09/18 02:30:31;;;;;;;4.18;1.88;;;;;;;17.05;100.00;99970.63;4952846;28;20051;-91
2023/09/18 02:32:57;;;;;;;0.70;0.68;;;;;;;17.04;100.00;99954.28;4943212;28;20047;-91
2023/09/18 02:35:23;;;;;;;1.98;1.27;;;;;;;17.09;100.00;99959.22;4952033;29;20039;-91
2023/09/18 02:37:48;;;;;;;4.32;1.42;;;;;;;17.02;100.00;99956.81;4952536;28;20039;-91
2023/09/18 02:40:14;;;;;;;3.47;1.45;;;;;;;17.03;100.00;99959.13;4950782;29;20504;-90
2023/09/18 02:42:39;;;;;;;1.73;1.40;;;;;;;17.07;100.00;99961.72;4946437;29;20099;-91
2023/09/18 02:45:06;;;;;;;4.80;2.80;;;;;;;17.12;100.00;99953.44;4952049;28;20086;-91
2023/09/18 02:47:32;;;;;;;1.25;1.15;;;;;;;17.11;100.00;99965.88;4951824;29;20051;-91
2023/09/18 02:49:57;;;;;;;2.58;1.92;;;;;;;17.08;100.00;99966.09;4954285;28;20050;-91
2023/09/18 02:52:23;;;;;;;0.57;0.50;;;;;;;17.03;100.00;99958.34;4944567;28;20126;-91
2023/09/18 02:54:48;;;;;;;1.30;0.95;;;;;;;17.05;100.00;99961.44;4944817;28;20046;-91
2023/09/18 02:57:14;;;;;;;1.65;1.55;;;;;;;17.04;100.00;99966.28;4951360;28;20598;-92
2023/09/18 02:59:39;;;;;;;5.30;1.65;;;;;;;17.04;100.00;99957.88;4930470;29;20054;-91
2023/09/18 03:02:05;;;;;;;1.73;1.30;;;;;;;17.05;100.00;99956.63;4951092;29;20560;-90
2023/09/18 03:04:31;;;;;;;0.95;0.85;;;;;;;16.98;100.00;99950.63;4950589;28;20495;-90
2023/09/18 03:06:57;;;;;;;1.92;1.40;;;;;;;17.01;100.00;99947.63;4949304;28;20053;-91
2023/09/18 03:09:23;;;;;;;1.92;1.83;;;;;;;17.00;100.00;99953.72;4952846;28;20043;-91
2023/09/18 03:11:49;;;;;;;1.30;1.20;;;;;;;17.03;100.00;99950.72;4947974;28;20525;-91
2023/09/18 03:14:15;;;;;;;1.60;1.08;;;;;;;17.01;100.00;99949.66;4914796;29;20118;-91
2023/09/18 03:16:40;;;;;;;1.27;1.02;;;;;;;17.00;100.00;99948.09;4945260;28;20623;-90
2023/09/18 03:19:06;;;;;;;5.63;2.20;;;;;;;16.95;100.00;99934.78;4950730;28;20046;-91
2023/09/18 03:21:35;;;;;;;3.78;2.47;;;;;;;16.95;100.00;99934.78;4951070;29;20042;-90
2023/09/18 03:24:01;;;;;;;1.33;1.23;;;;;;;17.02;100.00;99931.59;4941914;28;20406;-91
2023/09/18 03:26:27;;;;;;;1.58;1.23;;;;;;;17.02;100.00;99942.81;4935551;29;20039;-90
2023/09/18 03:28:53;;;;;;;0.80;0.80;;;;;;;16.93;100.00;99931.69;4948395;28;20081;-91
2023/09/18 03:31:19;;;;;;;1.27;1.17;;;;;;;16.97;100.00;99921.84;4959568;28;20137;-91
2023/09/18 03:33:44;;;;;;;2.13;1.52;;;;;;;16.99;100.00;99938.94;4951800;28;20043;-91
2023/09/18 03:36:11;;;;;;;1.42;1.33;;;;;;;16.91;100.00;99928.59;4954952;28;20128;-90
2023/09/18 03:38:37;;;;;;;3.38;1.45;;;;;;;16.96;100.00;99930.72;4953260;28;20190;-90
2023/09/18 03:41:03;;;;;;;3.00;1.48;;;;;;;17.01;100.00;99939.22;4939356;28;20138;-90
2023/09/18 03:43:28;;;;;;;1.58;1.48;;;;;;;16.98;100.00;99934.59;4961141;28;20050;-90
2023/09/18 03:45:54;;;;;;;1.73;1.60;;;;;;;16.97;100.00;99926.66;4950619;29;20071;-90
2023/09/18 03:48:21;;;;;;;2.08;1.88;;;;;;;17.02;100.00;99940.00;4949233;28;20043;-90
2023/09/18 03:50:48;;;;;;;1.40;1.17;;;;;;;16.97;100.00;99923.88;4943839;29;20047;-90
2023/09/18 03:53:13;;;;;;;2.40;1.65;;;;;;;17.02;100.00;99928.81;4933869;29;20386;-90
2023/09/18 03:55:39;;;;;;;2.45;1.65;;;;;;;17.00;100.00;99928.50;4952039;28;20058;-90
2023/09/18 03:58:05;;;;;;;1.98;1.77;;;;;;;16.95;100.00;99915.16;4950086;28;20045;-90
2023/09/18 04:00:31;;;;;;;1.38;0.93;;;;;;;16.94;100.00;99922.03;4948249;29;20499;-89
2023/09/18 04:02:56;;;;;;;3.38;1.70;;;;;;;16.86;100.00;99920.88;4949020;28;20106;-90
2023/09/18 04:05:22;;;;;;;3.53;2.03;;;;;;;16.92;100.00;99928.13;4946033;28;20044;-90
2023/09/18 04:07:47;;;;;;;3.35;2.92;;;;;;;16.92;100.00;99916.91;4948244;28;20122;-91
2023/09/18 04:10:18;;;;;;;3.05;2.75;;;;;;;16.96;100.00;99919.50;4942262;28;20105;-90
2023/09/18 04:12:46;;;;;;;2.55;2.38;;;;;;;16.94;100.00;99922.03;4943056;28;20047;-91
2023/09/18 04:15:17;;;;;;;2.05;1.55;;;;;;;16.86;100.00;99927.25;4929807;29;20110;-91
2023/09/18 04:17:42;;;;;;;1.48;1.38;;;;;;;16.83;100.00;99921.81;4942739;29;20044;-91
2023/09/18 04:20:09;;;;;;;2.72;2.03;;;;;;;16.83;100.00;99921.81;4932747;29;20035;-90
2023/09/18 04:22:35;;;;;;;6.70;1.98;;;;;;;16.86;100.00;99926.47;4945593;29;20048;-91
2023/09/18 04:25:04;;;;;;;1.55;1.45;;;;;;;16.85;100.00;99916.53;4967863;28;20047;-90
2023/09/18 04:27:31;;;;;;;1.85;1.73;;;;;;;16.87;100.00;99928.00;4960237;28;20479;-90
2023/09/18 04:29:56;;;;;;;1.92;1.83;;;;;;;16.75;100.00;99916.59;4951416;28;20150;-90
2023/09/18 04:32:23;;;;;;;2.15;1.90;;;;;;;16.85;100.00;99936.13;4945258;29;20130;-91
2023/09/18 04:34:48;;;;;;;2.20;1.38;;;;;;;16.79;100.00;99936.03;4947038;29;20045;-91
2023/09/18 04:37:14;;;;;;;3.75;2.58;;;;;;;16.76;100.00;99940.56;4947199;28;20043;-91
2023/09/18 04:39:40;;;;;;;4.35;2.55;;;;;;;16.75;100.00;99939.03;4909868;29;20043;-90
2023/09/18 04:42:09;;;;;;;1.90;1.80;;;;;;;16.76;100.00;99925.78;4938594;28;20039;-90
2023/09/18 04:44:34;;;;;;;1.38;1.27;;;;;;;16.70;100.00;99931.28;4922717;29;20044;-90
2023/09/18 04:47:00;;;;;;;3.63;2.90;;;;;;;16.68;100.00;99939.41;4925542;29;20047;-90
2023/09/18 04:49:27;;;;;;;3.10;2.83;;;;;;;16.63;100.00;99931.66;4923702;29;20046;-90
2023/09/18 04:51:53;;;;;;;1.25;1.15;;;;;;;16.56;100.00;99920.81;4944724;29;20399;-89
2023/09/18 04:54:19;;;;;;;1.65;1.55;;;;;;;16.58;100.00;99923.94;4941839;28;20126;-89
2023/09/18 04:56:45;;;;;;;3.10;2.88;;;;;;;16.57;100.00;99916.03;4911926;29;20162;-89
2023/09/18 04:59:11;;;;;;;1.08;1.05;;;;;;;16.52;100.00;99892.22;4940960;28;20051;-92
2023/09/18 05:01:39;;;;;;;1.58;1.27;;;;;;;16.63;100.00;99923.25;4941694;28;20047;-90
2023/09/18 05:04:05;;;;;;;1.88;1.63;;;;;;;16.62;100.00;99918.91;4893640;29;20248;-90
2023/09/18 05:06:32;;;;;;;2.83;2.55;;;;;;;16.56;100.00;99909.63;4912138;29;20114;-90
2023/09/18 05:08:57;;;;;;;2.35;2.10;;;;;;;16.68;100.00;99922.59;4918784;29;20094;-89
2023/09/18 05:11:23;;;;;;;2.95;1.88;;;;;;;16.61;100.00;99911.78;4944308;28;20044;-89
2023/09/18 05:13:49;;;;;;;1.98;1.80;;;;;;;16.69;100.00;99907.34;4921728;29;20575;-89
2023/09/18 05:16:14;;;;;;;1.98;1.83;;;;;;;16.72;100.00;99925.97;4939021;29;20152;-90
2023/09/18 05:18:40;;;;;;;2.17;1.98;;;;;;;16.70;100.00;99920.06;4918889;28;20396;-89
2023/09/18 05:21:06;;;;;;;1.77;1.50;;;;;;;16.71;100.00;99918.84;4910666;29;20094;-89
2023/09/18 05:23:32;;;;;;;2.65;2.08;;;;;;;16.64;100.00;99913.63;4912135;29;20051;-89
2023/09/18 05:25:57;;;;;;;1.48;1.38;;;;;;;16.62;100.00;99918.91;4912841;29;20158;-89
2023/09/18 05:28:23;;;;;;;1.50;1.40;;;;;;;16.68;100.00;99922.59;4925253;29;20467;-89
2023/09/18 05:30:48;;;;;;;2.22;2.10;;;;;;;16.66;100.00;99908.28;4944386;28;20559;-90
2023/09/18 05:33:14;;;;;;;1.98;1.80;;;;;;;16.70;100.00;99908.13;4940190;28;20050;-88
2023/09/18 05:35:41;;;;;;;2.30;1.33;;;;;;;16.71;100.00;99906.84;4938950;29;20448;-90
2023/09/18 05:38:08;;;;;;;1.55;1.45;;;;;;;16.72;100.00;99908.41;4911614;29;20057;-90
2023/09/18 05:40:34;;;;;;;1.27;1.23;;;;;;;16.68;100.00;99891.78;4931603;29;20799;-89
2023/09/18 05:43:00;;;;;;;3.65;2.03;;;;;;;16.75;100.00;99888.59;4946956;29;20122;-89
2023/09/18 05:45:26;;;;;;;4.88;3.50;;;;;;;16.83;100.00;99880.59;4933003;29;20058;-89
2023/09/18 05:48:03;;;;;;;3.50;2.28;;;;;;;17.03;100.00;99885.50;4921530;29;20130;-88
2023/09/18 05:50:31;;;;;;;2.38;2.17;;;;;;;17.14;100.00;99885.69;4932315;29;20039;-89
2023/09/18 05:53:00;;;;;;;3.40;2.10;;;;;;;17.16;100.00;99877.56;4930253;29;20051;-89
2023/09/18 05:55:26;;;;;;;6.03;2.97;;;;;;;17.28;100.00;99884.88;4936814;29;20051;-89
2023/09/18 05:57:53;;;;;;;8.23;3.17;;;;;;;17.49;100.00;99888.50;4916683;29;20119;-89
2023/09/18 06:00:19;;;;;;;2.53;2.10;;;;;;;17.58;100.00;99863.94;4947795;29;20047;-89
2023/09/18 06:02:45;;;;;;;2.78;2.17;;;;;;;17.69;100.00;99847.25;4923499;29;20119;-89
2023/09/18 06:05:11;;;;;;;1.65;1.55;;;;;;;18.04;100.00;99872.44;4948895;28;20067;-89
2023/09/18 06:07:36;;;;;;;4.57;2.50;;;;;;;18.13;100.00;99858.25;4951092;28;20526;-89
2023/09/18 06:10:02;;;;;;;2.08;1.88;;;;;;;18.42;100.00;99873.34;4958981;28;20097;-89
2023/09/18 06:12:28;;;;;;;2.42;2.22;;;;;;;18.48;100.00;99852.47;4936912;29;20258;-89
2023/09/18 06:14:53;;;;;;;3.25;2.92;;;;;;;18.66;100.00;99847.81;4949269;29;20404;-89
2023/09/18 06:17:19;;;;;;;1.70;1.58;;;;;;;18.82;100.00;99844.41;4932357;29;20560;-89
2023/09/18 06:19:45;;;;;;;6.13;2.22;;;;;;;18.89;100.00;99832.69;4953257;28;20031;-89
2023/09/18 06:22:12;;;;;;;1.88;1.77;;;;;;;18.99;100.00;99845.31;4965470;28;20047;-89
2023/09/18 06:24:37;;;;;;;6.43;2.58;;;;;;;19.05;100.00;99827.19;4960240;28;20114;-89
2023/09/18 06:27:06;;;;;;;3.13;2.58;;;;;;;19.32;100.00;99839.91;4966181;28;20051;-89
2023/09/18 06:29:33;;;;;;;4.63;3.33;;;;;;;19.50;100.00;99835.94;4951961;29;20518;-89
2023/09/18 06:31:58;;;;;;;4.25;2.10;;;;;;;19.60;100.00;99828.84;4948746;28;20067;-89
2023/09/18 06:34:25;;;;;;;3.95;2.47;;;;;;;19.67;100.00;99819.16;4947973;28;20090;-89
2023/09/18 06:36:50;;;;;;;2.53;2.00;;;;;;;19.65;100.00;99822.47;4966757;28;20043;-89
2023/09/18 06:39:16;;;;;;;5.10;2.92;;;;;;;19.64;100.00;99828.59;4962186;28;20466;-89
2023/09/18 06:41:42;;;;;;;1.40;1.30;;;;;;;19.89;100.00;99833.34;4955845;28;20073;-89
2023/09/18 06:44:11;;;;;;;1.73;1.63;;;;;;;19.93;100.00;99851.53;4957140;28;20043;-90
2023/09/18 06:46:36;;;;;;;3.08;1.75;;;;;;;20.03;100.00;99837.97;4961493;28;20516;-89
2023/09/18 06:49:03;;;;;;;2.80;2.25;;;;;;;20.36;100.00;99846.53;4950941;28;20114;-89
2023/09/18 06:51:29;;;;;;;2.15;1.70;;;;;;;20.37;100.00;99856.53;4954775;28;20053;-89
2023/09/18 06:53:57;;;;;;;3.25;2.90;;;;;;;20.40;100.00;99861.16;4935357;29;20566;-89
2023/09/18 06:56:25;;;;;;;3.55;2.58;;;;;;;20.40;100.00;99855.53;4953238;29;20044;-90
2023/09/18 06:58:51;;;;;;;3.10;1.80;;;;;;;20.51;100.00;99868.06;4952264;28;20046;-89
2023/09/18 07:01:20;;;;;;;2.53;2.33;;;;;;;20.64;100.00;99874.75;4952394;28;20043;-89
2023/09/18 07:03:50;;;;;;;1.70;1.50;;;;;;;20.60;100.00;99862.97;4963504;28;20057;-90
2023/09/18 07:06:15;;;;;;;1.95;1.55;;;;;;;20.66;100.00;99866.59;4935945;28;20483;-89
2023/09/18 07:08:43;;;;;;;2.08;1.85;;;;;;;20.66;100.00;99857.34;4955145;28;20043;-90
2023/09/18 07:11:08;;;;;;;1.95;1.77;;;;;;;20.63;100.00;99855.53;4951858;28;20038;-90
2023/09/18 07:13:34;;;;;;;2.53;2.30;;;;;;;20.56;100.00;99850.41;4954459;28;20392;-90
2023/09/18 07:15:59;;;;;;;3.92;2.72;;;;;;;20.83;100.00;99858.13;4954579;28;20039;-89
2023/09/18 07:18:25;;;;;;;1.92;1.83;;;;;;;20.98;100.00;99872.75;4936484;28;20043;-90
2023/09/18 07:20:51;;;;;;;1.75;1.50;;;;;;;21.18;100.00;99871.75;4971642;28;20129;-90
2023/09/18 07:23:16;;;;;;;3.88;2.55;;;;;;;21.46;100.00;99868.88;4977706;28;20046;-90
2023/09/18 07:25:44;;;;;;;2.63;2.42;;;;;;;21.24;100.00;99861.97;4960063;28;20069;-90
2023/09/18 07:28:15;;;;;;;1.90;1.70;;;;;;;21.30;100.00;99865.56;4941084;28;20038;-90
2023/09/18 07:30:41;;;;;;;2.63;1.73;;;;;;;21.40;100.00;99866.84;4935846;28;20138;-91
2023/09/18 07:33:07;;;;;;;1.48;1.33;;;;;;;21.59;100.00;99866.28;4949524;28;20105;-89
2023/09/18 07:35:32;;;;;;;2.78;2.00;;;;;;;21.87;100.00;99875.44;4945926;28;20046;-89
2023/09/18 07:37:58;;;;;;;1.80;1.70;;;;;;;22.10;100.00;99870.50;4960223;28;20063;-90
2023/09/18 07:40:24;;;;;;;5.22;2.90;;;;;;;22.38;100.00;99867.50;4970388;28;20074;-90
2023/09/18 07:42:49;;;;;;;2.45;1.77;;;;;;;22.40;100.00;99864.94;4953841;28;20039;-91
2023/09/18 07:45:15;;;;;;;1.80;1.38;;;;;;;22.56;100.00;99872.56;4954453;28;20043;-90
2023/09/18 07:47:40;;;;;;;1.98;1.80;;;;;;;22.58;100.00;99876.38;4949458;28;20497;-90
2023/09/18 07:50:06;;;;;;;2.67;2.22;;;;;;;22.78;100.00;99864.69;4954640;28;20039;-90
2023/09/18 07:52:32;;;;;;;3.60;2.15;;;;;;;22.78;100.00;99873.19;4962718;28;20381;-90
2023/09/18 07:54:58;;;;;;;1.35;1.00;;;;;;;22.94;100.00;99877.19;4947693;28;20110;-90
2023/09/18 07:57:24;;;;;;;4.75;2.42;;;;;;;22.99;100.00;99873.53;4945024;28;20584;-90
2023/09/18 07:59:50;;;;;;;4.50;1.70;;;;;;;23.35;100.00;99884.78;4942555;28;20043;-90
2023/09/18 08:02:17;;;;;;;2.40;1.38;;;;;;;23.48;100.00;99887.78;4933642;29;20062;-90
2023/09/18 08:04:43;;;;;;;4.15;2.17;;;;;;;23.56;100.00;99900.06;4919173;28;20436;-90
2023/09/18 08:07:09;;;;;;;1.80;1.23;;;;;;;23.70;100.00;99898.88;4947900;28;20054;-91
2023/09/18 08:09:36;;;;;;;1.75;1.40;;;;;;;23.25;100.00;99878.72;4943716;29;20046;-92
2023/09/18 08:12:06;;;;;;;1.75;1.65;;;;;;;23.56;100.00;99900.06;4935406;28;20495;-90
2023/09/18 08:14:31;;;;;;;1.38;1.27;;;;;;;23.69;100.00;99886.03;4939642;28;20047;-90
2023/09/18 08:16:58;;;;;;;2.42;1.75;;;;;;;23.66;100.00;99887.06;4943984;28;20544;-90
2023/09/18 08:19:26;;;;;;;3.08;2.13;;;;;;;23.69;100.00;99886.81;4932909;29;20140;-90
2023/09/18 08:21:54;;;;;;;4.63;2.58;;;;;;;23.23;100.00;99870.75;4918704;29;20063;-90
2023/09/18 08:24:19;;;;;;;1.80;1.70;;;;;;;23.36;100.00;99863.69;4954409;28;20035;-89
2023/09/18 08:26:45;;;;;;;3.50;2.03;;;;;;;23.70;100.00;99864.88;4943854;29;20392;-89
2023/09/18 08:29:10;;;;;;;4.25;2.03;;;;;;;23.86;100.00;99868.84;4932791;28;20039;-90
2023/09/18 08:31:36;;;;;;;2.67;1.77;;;;;;;23.97;100.00;99872.31;4931130;29;20051;-90
2023/09/18 08:34:02;;;;;;;2.13;1.67;;;;;;;24.12;100.00;99871.84;4934909;28;20054;-89
2023/09/18 08:36:30;;;;;;;1.83;1.50;;;;;;;24.27;100.00;99868.59;4923368;29;20039;-90
2023/09/18 08:38:56;;;;;;;2.60;1.95;;;;;;;24.72;100.00;99875.16;4932956;28;20055;-90
2023/09/18 08:41:25;;;;;;;4.22;1.60;;;;;;;25.06;100.00;99878.25;4917732;29;20136;-90
2023/09/18 08:43:52;;;;;;;1.60;1.08;;;;;;;24.83;100.00;99871.41;4908028;28;20379;-90
2023/09/18 08:46:18;;;;;;;1.48;1.38;;;;;;;24.87;100.00;99886.06;4942890;29;20053;-90
2023/09/18 08:48:44;;;;;;;4.47;2.05;;;;;;;24.88;100.00;99879.84;4933475;29;20039;-90
2023/09/18 08:51:10;;;;;;;1.45;1.35;;;;;;;25.13;100.00;99868.34;4931366;29;20055;-90
2023/09/18 08:53:36;;;;;;;1.92;1.65;;;;;;;25.32;100.00;99872.63;4931014;29;20039;-90
2023/09/18 08:56:04;;;;;;;2.88;1.63;;;;;;;25.25;100.00;99872.53;4931506;29;20046;-90
2023/09/18 08:58:39;;;;;;;1.48;1.38;;;;;;;24.86;100.00;99862.59;4947906;29;20047;-90
2023/09/18 09:01:07;;;;;;;1.65;1.27;;;;;;;25.03;100.00;99871.59;4903042;29;20048;-89
2023/09/18 09:03:34;;;;;;;1.73;1.63;;;;;;;25.12;100.00;99863.97;4954632;28;20062;-90
2023/09/18 09:06:01;;;;;;;0.98;0.90;;;;;;;25.35;100.00;99863.06;4948439;29;20047;-90
2023/09/18 09:08:30;;;;;;;1.75;1.42;;;;;;;25.51;100.00;99872.56;4962508;28;20532;-90
2023/09/18 09:10:57;;;;;;;1.85;1.08;;;;;;;25.64;100.00;99869.75;4963488;28;20046;-90
2023/09/18 09:13:26;;;;;;;1.58;1.40;;;;;;;25.58;100.00;99845.63;4946317;28;20056;-90
2023/09/18 09:15:54;;;;;;;1.67;1.02;;;;;;;25.84;100.00;99865.50;4950240;28;20051;-90
2023/09/18 09:18:20;;;;;;;1.30;1.20;;;;;;;26.05;100.00;99862.72;4948867;28;20043;-89
2023/09/18 09:20:58;;;;;;;1.23;1.10;;;;;;;26.18;100.00;99857.03;4931219;28;20047;-90
2023/09/18 09:23:25;;;;;;;6.80;2.17;;;;;;;26.61;97.95;99862.31;4960372;28;20063;-90
2023/09/18 09:25:51;;;;;;;1.13;0.88;;;;;;;26.83;95.02;99851.16;4962769;28;20514;-90
2023/09/18 09:28:29;;;;;;;1.08;1.00;;;;;;;26.63;92.30;99860.44;4951435;28;20047;-90
2023/09/18 09:31:02;;;;;;;1.63;1.27;;;;;;;26.63;95.13;99843.38;4953800;28;20126;-90
2023/09/18 09:33:27;;;;;;;1.73;1.40;;;;;;;26.67;95.90;99845.88;4951814;28;20075;-90
2023/09/18 09:35:53;;;;;;;2.15;1.52;;;;;;;26.65;91.10;99829.34;4958632;28;20042;-90
2023/09/18 09:38:20;;;;;;;1.70;0.88;;;;;;;26.38;93.79;99833.59;4958140;28;20073;-90
2023/09/18 09:40:46;;;;;;;1.63;1.35;;;;;;;26.38;95.37;99839.28;4951285;28;20058;-90
2023/09/18 09:43:16;;;;;;;11.18;1.98;;;;;;;26.45;93.29;99845.06;4952225;28;20536;-90
2023/09/18 09:45:42;;;;;;;0.47;0.47;;;;;;;26.45;94.56;99824.38;4966402;28;20114;-90
2023/09/18 09:48:08;;;;;;;1.27;1.02;;;;;;;26.81;92.08;99833.13;4949307;28;20512;-90
2023/09/18 09:50:47;;;;;;;0.85;0.82;;;;;;;27.05;92.79;99823.47;4933545;29;20488;-89
2023/09/18 09:53:13;;;;;;;1.42;1.15;;;;;;;27.35;87.05;99835.09;4962389;28;20043;-90
2023/09/18 09:55:40;;;;;;;0.65;0.65;;;;;;;27.07;85.66;99829.38;4952681;28;20090;-90
2023/09/18 09:58:06;;;;;;;2.05;1.45;;;;;;;27.23;84.62;99828.16;4949475;28;20496;-90
2023/09/18 10:00:42;;;;;;;0.80;0.80;;;;;;;27.19;83.34;99822.06;4968743;28;20530;-89
2023/09/18 10:03:09;;;;;;;1.85;1.30;;;;;;;27.30;82.54;99824.59;4951566;28;20059;-87
2023/09/18 10:05:37;;;;;;;2.30;0.93;;;;;;;27.26;83.29;99813.56;4953221;29;20506;-88
2023/09/18 10:08:07;;;;;;;1.42;1.33;;;;;;;27.48;83.59;99806.56;4940112;28;20047;-87
2023/09/18 10:10:35;;;;;;;1.73;1.48;;;;;;;27.55;80.44;99800.13;4958710;28;20507;-88
2023/09/18 10:13:10;;;;;;;1.20;1.10;;;;;;;27.77;81.16;99788.09;4952081;28;20055;-87
2023/09/18 10:15:38;;;;;;;6.95;1.67;;;;;;;28.00;74.86;99787.41;4936526;29;20039;-87
2023/09/18 10:18:08;;;;;;;7.30;1.52;;;;;;;28.11;76.75;99798.50;4950492;28;20118;-87
2023/09/18 10:20:42;;;;;;;1.17;1.08;;;;;;;28.32;71.07;99779.19;4952765;29;20129;-87
2023/09/18 10:23:17;;;;;;;2.35;2.00;;;;;;;28.42;70.06;99794.44;4948685;28;20500;-87
2023/09/18 10:25:43;;;;;;;1.48;1.38;;;;;;;28.11;73.25;99778.56;4958840;28;20101;-87
2023/09/18 10:28:09;;;;;;;1.02;1.02;;;;;;;28.27;70.10;99760.16;4941714;28;20042;-88
2023/09/18 10:30:37;;;;;;;1.63;1.27;;;;;;;28.05;70.62;99766.53;4958739;28;20459;-87
2023/09/18 10:33:02;;;;;;;2.38;1.90;;;;;;;27.55;72.37;99765.16;4957750;28;20526;-88
2023/09/18 10:35:29;;;;;;;0.40;0.40;;;;;;;27.45;76.63;99762.06;4960000;28;20043;-88
2023/09/18 10:37:54;;;;;;;1.42;1.33;;;;;;;27.22;76.68;99761.16;4967981;28;20027;-87
2023/09/18 10:40:20;;;;;;;0.70;0.70;;;;;;;27.47;75.80;99770.84;4951235;28;20049;-88
2023/09/18 10:42:48;;;;;;;3.10;1.63;;;;;;;27.60;75.26;99761.41;4958706;28;20126;-88
2023/09/18 10:45:15;;;;;;;1.55;1.45;;;;;;;27.84;74.06;99746.69;4951770;28;20543;-87
2023/09/18 10:47:43;;;;;;;1.38;1.27;;;;;;;28.02;73.54;99744.88;4935970;29;20135;-88
2023/09/18 10:50:09;;;;;;;1.30;0.75;;;;;;;27.92;74.88;99752.44;4950939;28;20047;-87
2023/09/18 10:52:36;;;;;;;5.72;0.80;;;;;;;27.96;75.44;99752.81;4944336;28;20043;-88
2023/09/18 10:55:05;;;;;;;0.50;0.50;;;;;;;27.94;72.58;99744.84;4950928;28;20056;-88
2023/09/18 10:57:35;;;;;;;0.75;0.75;;;;;;;27.76;73.59;99735.28;4960242;28;20510;-87
2023/09/18 11:00:13;;;;;;;1.35;1.05;;;;;;;27.95;73.24;99731.34;4955635;28;20130;-87
2023/09/18 11:02:42;;;;;;;1.30;1.15;;;;;;;28.14;73.38;99748.94;4936613;28;20079;-89
2023/09/18 11:05:07;;;;;;;1.65;1.17;;;;;;;28.33;72.24;99740.03;4934795;29;20519;-87
2023/09/18 11:07:33;;;;;;;1.63;1.33;;;;;;;28.15;69.04;99739.78;4935482;29;20047;-87
2023/09/18 11:09:59;;;;;;;1.63;1.52;;;;;;;28.32;71.59;99727.84;4951874;29;20082;-87
2023/09/18 11:12:43;;;;;;;1.50;1.38;;;;;;;28.57;70.45;99725.22;4947867;29;20051;-88
2023/09/18 11:15:10;;;;;;;0.68;0.68;;;;;;;28.61;67.92;99720.66;4954530;28;20122;-87
2023/09/18 11:17:37;;;;;;;0.82;0.82;;;;;;;28.67;67.32;99706.94;4956105;28;20036;-87
2023/09/18 11:20:11;;;;;;;1.77;1.67;;;;;;;28.25;68.37;99712.25;4941322;28;20047;-87
2023/09/18 11:22:58;;;;;;;1.48;1.30;;;;;;;27.90;71.68;99706.63;4955382;28;20044;-88
2023/09/18 11:25:51;;;;;;;1.10;0.95;;;;;;;27.79;71.79;99691.38;4940486;29;20113;-87